Time;durP1;ratioP1;P1;durP2;ratioP2;P2;SDS_P1;SDS_P2;PMS_P1;PMS_P2;Temp;Humidity;BMP_temperature;BMP_pressure;BME280_temperature;BME280_humidity;BME280_pressure;Samples;Min_cycle;Max_cycle;Signal;HPM_P1;HPM_P2
2022/03/08 00:01:17;;;;;;;17.33;11.60;;;1.00;99.90;;;0.76;71.00;102134.59;4977845;28;20242;-76
2022/03/08 00:03:47;;;;;;;6.53;5.32;;;1.00;99.90;;;0.88;72.12;102134.56;4978161;28;20175;-76
2022/03/08 00:06:16;;;;;;;11.35;7.85;;;1.00;99.90;;;0.88;71.63;102128.38;4978226;28;20207;-76
2022/03/08 00:08:49;;;;;;;8.13;6.40;;;1.10;99.90;;;0.94;71.12;102122.59;4978174;28;20650;-77
2022/03/08 00:11:19;;;;;;;9.63;6.90;;;1.10;99.90;;;1.05;71.02;102130.69;4960459;28;20225;-75
2022/03/08 00:13:50;;;;;;;7.80;6.70;;;1.20;99.90;;;0.98;71.53;102123.22;4977231;28;20187;-76
2022/03/08 00:16:21;;;;;;;15.15;9.45;;;1.20;99.90;;;0.65;71.48;102123.81;4977291;28;20180;-76
2022/03/08 00:18:51;;;;;;;7.85;6.80;;;1.00;99.90;;;0.64;71.89;102119.44;4977072;28;20183;-76
2022/03/08 00:21:21;;;;;;;9.55;8.10;;;1.00;99.90;;;0.80;72.09;102117.41;4999394;23;20224;-70
2022/03/08 00:23:51;;;;;;;10.05;6.85;;;1.00;99.90;;;0.80;71.92;102122.75;4976746;28;20180;-71
2022/03/08 00:26:20;;;;;;;11.77;8.13;;;1.00;99.90;;;0.79;71.64;102121.03;4976986;28;20257;-70
2022/03/08 00:28:48;;;;;;;11.57;7.93;;;1.00;99.90;;;0.88;71.80;102118.56;4977196;28;20191;-70
2022/03/08 00:31:20;;;;;;;12.93;7.38;;;1.00;99.90;;;0.59;71.70;102122.44;4975741;28;20199;-71
2022/03/08 00:33:49;;;;;;;10.85;7.35;;;0.90;99.90;;;0.39;72.81;102123.84;4975213;28;20627;-70
2022/03/08 00:36:18;;;;;;;13.32;6.38;;;0.80;99.90;;;0.26;73.30;102130.97;4990294;23;20258;-75
2022/03/08 00:38:47;;;;;;;12.88;7.28;;;0.60;99.90;;;0.58;72.74;102130.56;4976718;28;20609;-76
2022/03/08 00:41:16;;;;;;;10.32;7.10;;;0.70;99.90;;;0.43;72.80;102138.66;4971664;28;20267;-75
2022/03/08 00:43:46;;;;;;;10.32;7.13;;;0.70;99.90;;;0.25;73.57;102134.59;4972014;28;20195;-75
2022/03/08 00:46:15;;;;;;;10.23;6.05;;;0.60;99.90;;;0.26;73.83;102133.66;4955192;29;20231;-76
2022/03/08 00:48:46;;;;;;;10.57;6.35;;;0.60;99.90;;;0.22;73.67;102129.50;4956691;29;20196;-76
2022/03/08 00:51:16;;;;;;;7.85;6.68;;;0.50;99.90;;;0.37;73.47;102116.94;4971752;28;20323;-76
2022/03/08 00:53:48;;;;;;;8.85;6.60;;;0.60;99.90;;;0.29;74.41;102127.28;4956018;29;20184;-75
2022/03/08 00:56:18;;;;;;;11.23;6.15;;;0.60;99.90;;;0.27;73.98;102118.53;4956815;29;20211;-75
2022/03/08 00:58:47;;;;;;;9.50;6.28;;;0.60;99.90;;;0.17;74.06;102117.44;4955143;29;20192;-75
2022/03/08 01:01:16;;;;;;;7.32;6.53;;;0.50;99.90;;;0.13;74.46;102118.63;4955301;29;20627;-75
2022/03/08 01:03:49;;;;;;;12.52;7.10;;;0.50;99.90;;;0.06;74.04;102115.53;4956451;29;20590;-75
2022/03/08 01:06:18;;;;;;;9.88;7.10;;;0.40;99.90;;;0.07;74.32;102111.91;4955979;29;20291;-75
2022/03/08 01:08:47;;;;;;;8.20;6.35;;;0.40;99.90;;;0.30;74.02;102111.16;4971014;28;20571;-75
2022/03/08 01:11:16;;;;;;;12.68;6.75;;;0.50;99.90;;;0.25;73.65;102109.78;4955831;28;20586;-77
2022/03/08 01:13:45;;;;;;;10.65;6.47;;;0.50;99.90;;;0.22;73.77;102105.53;4956219;29;20168;-76
2022/03/08 01:16:14;;;;;;;10.43;6.28;;;0.50;99.90;;;0.24;73.92;102119.56;4971011;28;20192;-75
2022/03/08 01:18:43;;;;;;;12.77;6.43;;;0.50;99.90;;;0.19;74.16;102111.06;4956153;29;20236;-74
2022/03/08 01:21:15;;;;;;;7.78;6.93;;;0.50;99.90;;;-0.09;74.54;102103.25;4970550;28;20698;-75
2022/03/08 01:23:44;;;;;;;10.90;6.38;;;0.30;99.90;;;-0.14;75.22;102108.88;4956163;29;20206;-75
2022/03/08 01:26:15;;;;;;;9.35;6.60;;;0.30;99.90;;;0.18;75.10;102106.72;4956447;29;20184;-75
2022/03/08 01:28:44;;;;;;;9.75;6.38;;;0.40;99.90;;;0.15;74.77;102106.03;4955654;29;20288;-75
2022/03/08 01:31:13;;;;;;;11.35;5.95;;;0.40;99.90;;;0.19;73.98;102105.75;4970471;28;20224;-76
2022/03/08 01:33:43;;;;;;;10.13;6.43;;;0.40;99.90;;;0.17;73.92;102114.78;4955766;29;20168;-75
2022/03/08 01:36:14;;;;;;;11.90;6.45;;;0.40;99.90;;;0.16;74.05;102119.25;4971126;28;20204;-76
2022/03/08 01:38:46;;;;;;;11.38;7.22;;;0.40;99.90;;;0.08;74.25;102096.78;4956575;29;20627;-75
2022/03/08 01:41:15;;;;;;;10.27;6.03;;;0.30;99.90;;;-0.19;74.74;102096.84;4956104;28;20212;-76
2022/03/08 01:43:45;;;;;;;12.68;9.75;;;0.20;99.90;;;0.05;75.13;102105.81;4954577;29;20196;-75
2022/03/08 01:46:15;;;;;;;20.42;9.07;;;0.30;99.90;;;-0.15;75.28;102111.66;4957053;29;20196;-76
2022/03/08 01:48:45;;;;;;;9.15;8.07;;;0.20;99.90;;;-0.08;75.29;102104.97;4959611;29;20641;-75
2022/03/08 01:51:17;;;;;;;11.05;7.05;;;0.20;99.90;;;-0.14;75.16;102106.22;4959377;28;20211;-75
2022/03/08 01:53:46;;;;;;;12.88;9.00;;;0.10;99.90;;;-0.05;75.13;102094.94;4959746;29;20196;-75
2022/03/08 01:56:18;;;;;;;15.98;8.45;;;0.10;99.90;;;-0.03;74.62;102100.19;4971987;29;20180;-76
2022/03/08 01:58:47;;;;;;;22.00;7.80;;;0.20;99.90;;;0.00;75.12;102102.66;4968681;29;20594;-76
2022/03/08 02:01:16;;;;;;;15.75;13.55;;;0.20;99.90;;;-0.18;74.69;102093.25;4971199;28;20219;-74
2022/03/08 02:03:45;;;;;;;17.00;13.18;;;0.10;99.90;;;-0.26;74.98;102095.56;4955076;29;20562;-76
2022/03/08 02:06:16;;;;;;;22.70;18.33;;;0.10;99.90;;;-0.29;75.65;102101.09;4955386;29;20531;-76
2022/03/08 02:08:46;;;;;;;73.80;59.75;;;0.00;99.90;;;-0.43;75.50;102091.38;4955512;29;20628;-75
2022/03/08 02:11:16;;;;;;;76.82;64.68;;;-0.10;99.90;;;-0.41;75.97;102104.56;4956722;28;20236;-75
2022/03/08 02:13:45;;;;;;;14.48;8.60;;;-0.10;99.90;;;-0.46;75.82;102089.78;4959818;29;20194;-75
2022/03/08 02:16:14;;;;;;;10.95;7.47;;;-0.10;99.90;;;-0.35;75.91;102090.88;4956088;29;20188;-74
2022/03/08 02:18:43;;;;;;;16.20;11.55;;;-0.10;99.90;;;-0.35;76.00;102090.88;4956117;29;20173;-74
2022/03/08 02:21:14;;;;;;;12.98;9.15;;;-0.10;99.90;;;-0.40;75.96;102090.31;4956329;28;20219;-75
2022/03/08 02:23:42;;;;;;;16.60;14.85;;;-0.10;99.90;;;-0.44;75.72;102087.84;4954885;29;20192;-75
2022/03/08 02:26:11;;;;;;;9.18;7.28;;;-0.10;99.90;;;-0.36;76.33;102094.47;4954875;29;20620;-75
2022/03/08 02:28:42;;;;;;;11.55;8.27;;;-0.10;99.90;;;-0.38;75.81;102088.41;4954625;29;20200;-75
2022/03/08 02:31:11;;;;;;;14.68;10.48;;;-0.10;99.90;;;-0.46;76.08;102089.78;4954991;28;20215;-75
2022/03/08 02:33:40;;;;;;;11.52;8.57;;;-0.20;99.90;;;-0.46;75.99;102089.78;4954469;29;20204;-75
2022/03/08 02:36:09;;;;;;;12.43;7.70;;;-0.20;99.90;;;-0.54;76.34;102097.44;4954586;29;20188;-75
2022/03/08 02:38:39;;;;;;;13.02;8.88;;;-0.20;99.90;;;-0.58;76.77;102095.91;4954327;29;20188;-75
2022/03/08 02:41:08;;;;;;;8.63;7.82;;;-0.30;99.90;;;-0.60;76.36;102097.81;4954424;28;20235;-75
2022/03/08 02:43:37;;;;;;;12.93;8.13;;;-0.30;99.90;;;-0.65;77.01;102099.06;4954543;29;20204;-75
2022/03/08 02:46:06;;;;;;;12.68;8.93;;;-0.40;99.90;;;-0.68;76.51;102099.28;4954322;29;20251;-75
2022/03/08 02:48:35;;;;;;;10.20;7.40;;;-0.40;99.90;;;-0.69;76.85;102100.22;4954162;29;20216;-75
2022/03/08 02:51:04;;;;;;;10.13;7.18;;;-0.40;99.90;;;-0.72;76.85;102101.28;4954621;28;20267;-76
2022/03/08 02:53:33;;;;;;;11.43;6.82;;;-0.40;99.90;;;-0.75;77.61;102103.28;4954591;29;20200;-75
2022/03/08 02:56:04;;;;;;;12.10;6.85;;;-0.50;99.90;;;-0.77;77.10;102100.72;4937089;29;20294;-75
2022/03/08 02:58:33;;;;;;;12.23;6.53;;;-0.50;99.90;;;-0.82;77.10;102104.66;4954430;29;20176;-75
2022/03/08 03:01:02;;;;;;;10.00;7.20;;;-0.50;99.90;;;-0.82;77.76;102108.13;4954959;28;20222;-75
2022/03/08 03:03:31;;;;;;;11.13;6.50;;;-0.50;99.90;;;-0.57;77.24;102102.94;4954382;28;20640;-74
2022/03/08 03:06:00;;;;;;;14.70;8.93;;;-0.40;99.90;;;-0.65;76.76;102099.06;4954907;29;20662;-74
2022/03/08 03:08:30;;;;;;;13.25;7.20;;;-0.40;99.90;;;-0.77;76.81;102100.72;4937533;29;20232;-74
2022/03/08 03:10:59;;;;;;;10.00;7.45;;;-0.50;99.90;;;-0.95;77.32;102096.59;4954816;28;20227;-73
2022/03/08 03:13:29;;;;;;;10.73;7.40;;;-0.60;99.90;;;-0.94;77.89;102103.63;4955551;29;20196;-75
2022/03/08 03:15:58;;;;;;;8.32;7.25;;;-0.60;99.90;;;-0.96;77.85;102105.50;4955062;29;20271;-74
2022/03/08 03:18:27;;;;;;;10.38;7.38;;;-0.60;99.90;;;-0.96;78.73;102101.06;4956976;29;20204;-74
2022/03/08 03:20:56;;;;;;;11.65;8.40;;;-0.70;99.90;;;-1.03;78.43;102102.41;4954419;28;20215;-75
2022/03/08 03:23:25;;;;;;;9.77;6.95;;;-0.70;99.90;;;-0.92;78.94;102109.72;4954873;29;20216;-75
2022/03/08 03:25:54;;;;;;;9.82;7.70;;;-0.70;99.90;;;-0.85;78.11;102104.84;4955315;29;20690;-76
2022/03/08 03:28:23;;;;;;;11.15;7.70;;;-0.60;99.90;;;-0.86;77.52;102111.94;4954648;29;20263;-76
2022/03/08 03:30:53;;;;;;;12.23;8.90;;;-0.60;99.90;;;-0.87;77.54;102105.78;4954054;28;20497;-76
2022/03/08 03:33:22;;;;;;;19.35;9.23;;;-0.60;99.90;;;-0.91;77.65;102108.72;4953935;29;20231;-76
2022/03/08 03:35:51;;;;;;;13.10;9.80;;;-0.60;99.90;;;-0.94;77.90;102106.28;4954255;29;20200;-76
2022/03/08 03:38:20;;;;;;;13.45;9.25;;;-0.70;99.90;;;-0.98;77.60;102105.63;4953841;29;20176;-74
2022/03/08 03:40:49;;;;;;;13.52;9.40;;;-0.70;99.90;;;-1.06;78.48;102107.06;4937000;29;20247;-75
2022/03/08 03:43:18;;;;;;;13.20;9.82;;;-0.70;99.90;;;-1.00;78.33;102109.31;4954105;29;20176;-77
2022/03/08 03:45:46;;;;;;;10.00;8.73;;;-0.70;99.90;;;-0.98;78.02;102102.97;4953731;29;20641;-75
2022/03/08 03:48:17;;;;;;;14.82;9.93;;;-0.70;99.90;;;-1.04;78.09;102097.19;4953571;29;20576;-75
2022/03/08 03:50:47;;;;;;;30.75;10.82;;;-0.70;99.90;;;-1.08;78.15;102101.84;4936626;29;20276;-75
2022/03/08 03:53:16;;;;;;;10.65;9.02;;;-0.70;99.90;;;-0.90;78.28;102105.13;4953938;29;20700;-74
2022/03/08 03:55:44;;;;;;;14.75;11.23;;;-0.70;99.90;;;-0.94;77.66;102098.31;4954078;29;20176;-75
2022/03/08 03:58:13;;;;;;;13.55;8.15;;;-0.70;99.90;;;-0.93;77.68;102095.56;4936912;29;20227;-75
2022/03/08 04:00:42;;;;;;;12.52;8.48;;;-0.70;99.90;;;-0.96;78.17;102092.22;4953967;28;20220;-75
2022/03/08 04:03:13;;;;;;;13.25;10.40;;;-0.70;99.90;;;-0.85;78.23;102089.75;4954064;29;20221;-75
2022/03/08 04:05:43;;;;;;;12.00;8.43;;;-0.70;99.90;;;-0.62;77.03;102083.75;4936918;29;20196;-74
2022/03/08 04:08:12;;;;;;;16.92;9.50;;;-0.50;99.90;;;-0.62;77.59;102083.75;4953885;29;20239;-74
2022/03/08 04:10:41;;;;;;;12.27;8.05;;;-0.50;99.90;;;-0.67;77.61;102088.53;4955787;28;20236;-75
2022/03/08 04:13:10;;;;;;;13.13;8.80;;;-0.50;99.90;;;-0.81;77.19;102090.38;4954489;29;20181;-75
2022/03/08 04:15:39;;;;;;;13.40;8.88;;;-0.50;99.90;;;-0.76;77.63;102096.25;4955784;28;20259;-75
2022/03/08 04:18:08;;;;;;;11.20;9.35;;;-0.50;99.90;;;-0.84;77.19;102093.25;4974611;28;20280;-74
2022/03/08 04:20:37;;;;;;;10.32;8.95;;;-0.60;99.90;;;-0.89;77.58;102093.56;4959116;28;20235;-74
2022/03/08 04:23:07;;;;;;;14.13;8.77;;;-0.60;99.90;;;-0.67;77.11;102101.81;4956284;29;20251;-74
2022/03/08 04:25:36;;;;;;;10.48;9.38;;;-0.50;99.90;;;-0.60;77.10;102097.81;4958063;29;20671;-76
2022/03/08 04:28:07;;;;;;;13.15;8.23;;;-0.40;99.90;;;-0.62;76.80;102093.53;4959475;29;20232;-75
2022/03/08 04:30:36;;;;;;;12.35;7.28;;;-0.40;99.90;;;-0.74;77.11;102100.53;4957683;29;20252;-75
2022/03/08 04:33:05;;;;;;;12.90;8.18;;;-0.40;99.90;;;-0.97;77.04;102098.53;4958745;29;20239;-75
2022/03/08 04:35:34;;;;;;;13.77;8.40;;;-0.60;99.90;;;-0.90;77.54;102106.00;4961277;29;20227;-76
2022/03/08 04:38:03;;;;;;;11.45;8.63;;;-0.60;99.90;;;-0.93;78.11;102102.69;4962163;29;20196;-75
2022/03/08 04:40:33;;;;;;;12.73;7.90;;;-0.60;99.90;;;-1.12;78.65;102097.69;4964398;28;20583;-74
2022/03/08 04:43:02;;;;;;;14.70;8.63;;;-0.80;99.90;;;-0.98;78.32;102096.81;4963362;29;20187;-75
2022/03/08 04:45:31;;;;;;;12.93;8.55;;;-0.70;99.90;;;-1.03;77.98;102098.91;4959226;29;20196;-75
2022/03/08 04:48:00;;;;;;;11.57;7.65;;;-0.70;99.90;;;-1.07;78.02;102092.09;4959042;29;20259;-74
2022/03/08 04:50:29;;;;;;;11.02;8.27;;;-0.70;99.90;;;-0.99;78.12;102100.41;4960241;28;20227;-74
2022/03/08 04:52:58;;;;;;;16.23;10.05;;;-0.70;99.90;;;-0.91;77.55;102103.41;4939704;29;20208;-75
2022/03/08 04:55:29;;;;;;;12.40;9.27;;;-0.70;99.90;;;-0.87;78.05;102115.56;4956926;29;20275;-75
2022/03/08 04:58:06;;;;;;;12.20;8.88;;;-0.60;99.90;;;-1.06;78.65;102117.69;4955926;29;20195;-76
2022/03/08 05:00:35;;;;;;;14.35;8.40;;;-0.70;99.90;;;-1.01;77.99;102111.13;4957311;28;20203;-76
2022/03/08 05:03:04;;;;;;;11.38;9.38;;;-0.70;99.90;;;-1.11;77.88;102117.13;4957245;29;20192;-75
2022/03/08 05:05:33;;;;;;;13.70;8.70;;;-0.80;99.90;;;-1.23;78.21;102112.59;4958567;29;20207;-74
2022/03/08 05:08:03;;;;;;;13.63;7.60;;;-0.90;99.90;;;-0.85;78.20;102120.78;4958050;29;20239;-76
2022/03/08 05:10:32;;;;;;;13.90;7.78;;;-0.70;99.90;;;-0.96;78.13;102122.31;4956999;28;20296;-76
2022/03/08 05:13:03;;;;;;;12.80;7.65;;;-0.70;99.90;;;-1.13;78.21;102124.34;4956996;29;20176;-75
2022/03/08 05:15:34;;;;;;;13.88;9.15;;;-0.80;99.90;;;-1.19;77.94;102119.41;4956767;29;20695;-73
2022/03/08 05:18:03;;;;;;;13.57;10.02;;;-0.80;99.90;;;-1.25;78.79;102125.09;4956927;29;20231;-75
2022/03/08 05:20:32;;;;;;;15.45;8.57;;;-0.90;99.90;;;-1.18;78.24;102118.47;4956637;28;20204;-75
2022/03/08 05:23:01;;;;;;;11.82;7.50;;;-0.90;99.90;;;-1.00;78.02;102117.31;4957469;29;20598;-75
2022/03/08 05:25:30;;;;;;;17.70;9.38;;;-0.80;99.90;;;-0.87;77.97;102127.03;4956690;29;20179;-75
2022/03/08 05:27:59;;;;;;;14.85;9.65;;;-0.70;99.90;;;-0.84;77.30;102126.00;4956094;28;20188;-76
2022/03/08 05:30:27;;;;;;;14.65;10.88;;;-0.70;99.90;;;-0.91;77.66;102132.66;4956912;28;20223;-74
2022/03/08 05:32:58;;;;;;;14.95;8.07;;;-0.70;99.90;;;-0.94;77.99;102146.16;4939461;29;20192;-74
2022/03/08 05:35:28;;;;;;;8.55;5.75;;;-0.70;99.90;;;-0.97;77.34;102141.03;4955692;29;20626;-76
2022/03/08 05:37:57;;;;;;;8.55;6.43;;;-0.70;99.90;;;-1.01;77.95;102145.66;4957822;29;20188;-75
2022/03/08 05:40:25;;;;;;;9.02;8.00;;;-0.70;99.90;;;-1.01;77.47;102152.78;4960986;28;20181;-76
2022/03/08 05:42:54;;;;;;;9.95;6.50;;;-0.70;99.90;;;-1.00;77.15;102152.69;4977367;29;20252;-74
2022/03/08 05:45:23;;;;;;;9.60;6.95;;;-0.70;99.90;;;-0.98;77.50;102152.59;4977633;29;20176;-75
2022/03/08 05:47:52;;;;;;;8.30;6.85;;;-0.70;99.90;;;-1.00;77.13;102159.81;4977617;29;20656;-75
2022/03/08 05:50:22;;;;;;;8.30;6.10;;;-0.70;99.90;;;-0.95;76.79;102152.41;4977972;28;20196;-75
2022/03/08 05:52:51;;;;;;;8.48;6.13;;;-0.70;99.90;;;-0.84;76.34;102157.91;4978095;29;20192;-76
2022/03/08 05:55:20;;;;;;;8.50;6.40;;;-0.70;99.90;;;-0.84;76.53;102157.91;4978073;29;20207;-74
2022/03/08 05:57:49;;;;;;;7.40;5.88;;;-0.70;99.90;;;-0.82;76.10;102155.97;4964556;29;20223;-76
2022/03/08 06:00:18;;;;;;;11.38;6.63;;;-0.60;99.90;;;-0.76;76.17;102152.94;4956155;28;20282;-74
2022/03/08 06:02:47;;;;;;;8.65;6.35;;;-0.60;99.90;;;-0.67;75.75;102157.66;4956941;29;20687;-75
2022/03/08 06:05:16;;;;;;;9.38;7.43;;;-0.50;99.90;;;-0.44;74.81;102157.00;4957383;29;20188;-76
2022/03/08 06:07:47;;;;;;;9.68;6.75;;;-0.40;99.90;;;-0.33;74.82;102155.44;4940621;29;20207;-76
2022/03/08 06:10:16;;;;;;;10.10;7.65;;;-0.30;99.90;;;-0.24;74.42;102152.19;4957964;28;20637;-75
2022/03/08 06:12:45;;;;;;;7.95;6.03;;;-0.20;99.90;;;-0.22;74.29;102140.50;4957836;29;20185;-75
2022/03/08 06:15:14;;;;;;;9.20;7.55;;;-0.20;99.90;;;-0.11;74.14;102155.75;4957194;29;20227;-75
2022/03/08 06:17:43;;;;;;;14.43;7.05;;;-0.10;99.90;;;-0.01;73.64;102146.19;4956910;28;20192;-75
2022/03/08 06:20:12;;;;;;;9.60;5.75;;;0.00;99.90;;;0.03;73.65;102150.34;4956165;28;20276;-75
2022/03/08 06:22:42;;;;;;;9.23;6.68;;;0.00;99.90;;;0.04;73.21;102146.72;4955826;29;20219;-77
2022/03/08 06:25:13;;;;;;;14.80;8.07;;;0.10;99.90;;;0.08;73.60;102145.56;4964450;29;20207;-75
2022/03/08 06:27:42;;;;;;;11.80;7.50;;;0.10;99.90;;;0.10;73.02;102140.97;4960707;29;20231;-77
2022/03/08 06:30:12;;;;;;;12.15;7.75;;;0.10;99.90;;;0.09;73.03;102141.94;4956178;28;20717;-77
2022/03/08 06:32:41;;;;;;;8.85;7.30;;;0.20;99.90;;;0.25;73.11;102145.25;4956707;29;20229;-76
2022/03/08 06:35:11;;;;;;;14.02;7.72;;;0.30;99.90;;;0.11;73.41;102142.66;4955647;29;20200;-77
2022/03/08 06:37:40;;;;;;;12.38;7.90;;;0.20;99.90;;;0.24;73.05;102138.22;4955875;28;20192;-76
2022/03/08 06:40:12;;;;;;;11.85;7.90;;;0.30;99.90;;;0.26;72.72;102130.97;4955909;28;20707;-77
2022/03/08 06:42:42;;;;;;;10.82;8.10;;;0.40;99.90;;;0.25;72.70;102129.28;4956285;29;20176;-78
2022/03/08 06:45:11;;;;;;;8.43;7.00;;;0.40;99.90;;;0.44;72.60;102123.50;4956691;29;20242;-75
2022/03/08 06:47:40;;;;;;;8.52;7.25;;;0.50;99.90;;;0.56;72.15;102133.31;4955946;29;20214;-77
2022/03/08 06:50:10;;;;;;;11.80;7.97;;;0.50;99.90;;;0.59;71.90;102132.25;4955580;28;20287;-76
2022/03/08 06:52:39;;;;;;;13.82;8.30;;;0.60;99.90;;;0.70;72.18;102132.34;4955403;29;20671;-75
2022/03/08 06:55:10;;;;;;;16.83;11.20;;;0.70;99.90;;;0.99;71.18;102127.59;4955939;29;20246;-77
2022/03/08 06:57:40;;;;;;;12.77;8.73;;;0.90;99.90;;;1.13;70.10;102128.31;4956227;29;20164;-76
2022/03/08 07:00:11;;;;;;;13.48;8.55;;;1.10;99.90;;;1.16;69.87;102125.41;4957321;28;20256;-76
2022/03/08 07:02:40;;;;;;;9.65;7.13;;;1.10;99.90;;;1.19;69.52;102127.03;4956407;29;20176;-76
2022/03/08 07:05:10;;;;;;;10.38;8.07;;;1.20;99.90;;;1.20;69.66;102134.91;4956719;29;20204;-77
2022/03/08 07:07:39;;;;;;;11.38;8.20;;;1.20;99.90;;;1.33;69.69;102139.34;4938401;29;20194;-77
2022/03/08 07:10:09;;;;;;;8.63;7.60;;;1.30;99.90;;;1.58;68.58;102147.25;4970465;28;20236;-76
2022/03/08 07:12:40;;;;;;;9.43;7.38;;;1.50;99.90;;;1.67;67.88;102154.56;4956057;29;20176;-75
2022/03/08 07:15:09;;;;;;;10.43;6.82;;;1.60;97.10;;;1.68;67.57;102151.78;4956490;29;20183;-77
2022/03/08 07:17:40;;;;;;;8.90;6.63;;;1.70;94.60;;;1.67;67.74;102147.41;4956205;29;20192;-77
2022/03/08 07:20:11;;;;;;;11.73;7.65;;;1.70;93.70;;;1.94;67.51;102152.47;4963343;28;20178;-77
2022/03/08 07:22:41;;;;;;;10.65;7.85;;;1.80;94.80;;;1.95;66.95;102148.84;4965158;29;20247;-77
2022/03/08 07:25:11;;;;;;;11.25;7.68;;;1.90;92.30;;;2.09;66.79;102156.66;4951985;29;20195;-77
2022/03/08 07:27:42;;;;;;;12.55;8.40;;;2.00;91.20;;;2.21;66.99;102154.03;4945095;29;20192;-78
2022/03/08 07:30:12;;;;;;;13.57;9.00;;;2.10;91.50;;;2.34;66.09;102162.78;4961712;28;20231;-76
2022/03/08 07:32:41;;;;;;;13.32;8.20;;;2.30;90.70;;;2.44;66.80;102161.13;4957783;29;20235;-77
2022/03/08 07:35:11;;;;;;;12.85;9.07;;;2.40;91.00;;;2.76;65.99;102153.28;4957417;29;20291;-76
2022/03/08 07:37:42;;;;;;;14.23;11.43;;;2.50;89.30;;;2.95;65.67;102165.03;4966053;29;20191;-77
2022/03/08 07:40:13;;;;;;;14.32;11.20;;;2.70;85.40;;;2.93;66.04;102166.16;4967218;28;20196;-76
2022/03/08 07:42:43;;;;;;;15.48;10.82;;;2.80;85.80;;;3.07;65.87;102171.25;4961834;29;20177;-75
2022/03/08 07:45:13;;;;;;;13.85;9.75;;;2.90;84.60;;;3.26;65.48;102159.91;4961396;29;20815;-76
2022/03/08 07:47:42;;;;;;;11.30;10.02;;;3.10;82.80;;;3.45;65.52;102163.63;4955441;29;20180;-77
2022/03/08 07:50:12;;;;;;;14.43;11.23;;;3.30;80.90;;;3.66;64.20;102169.06;4956379;28;20263;-75
2022/03/08 07:52:40;;;;;;;14.35;10.52;;;3.50;73.30;;;3.76;64.06;102169.16;4959754;29;20173;-74
2022/03/08 07:55:10;;;;;;;14.68;11.48;;;3.60;67.90;;;3.89;63.49;102169.81;4975742;28;20196;-74
2022/03/08 07:57:39;;;;;;;15.20;11.50;;;3.70;65.20;;;4.04;63.47;102167.69;4942259;29;20216;-76
2022/03/08 08:03:40;;;;;;;10.82;9.60;;;3.90;60.30;;;4.35;62.63;102169.50;4961879;29;20239;-77
2022/03/08 08:06:09;;;;;;;16.63;11.00;;;4.20;56.50;;;4.71;60.91;102163.63;4958477;29;20177;-80
2022/03/08 08:08:38;;;;;;;11.02;8.55;;;4.50;50.00;;;4.85;59.56;102158.88;4975714;28;20204;-78
2022/03/08 08:11:06;;;;;;;9.85;7.32;;;4.70;42.70;;;4.91;59.27;102153.00;4963494;28;20315;-77
2022/03/08 08:13:35;;;;;;;10.75;7.30;;;4.80;38.60;;;4.98;58.96;102146.13;4975730;28;20564;-77
2022/03/08 08:16:06;;;;;;;12.18;8.23;;;4.90;36.40;;;4.96;59.01;102150.75;4960244;29;20180;-77
2022/03/08 08:18:35;;;;;;;10.93;7.78;;;4.90;34.70;;;4.94;58.61;102148.19;4959428;29;20184;-78
2022/03/08 08:21:05;;;;;;;17.92;8.68;;;4.90;33.40;;;4.97;58.42;102136.34;4958733;29;20212;-78
2022/03/08 08:23:34;;;;;;;12.70;6.82;;;4.90;32.50;;;5.05;58.04;102134.69;4959506;29;20176;-77
2022/03/08 08:26:03;;;;;;;9.43;7.88;;;4.90;32.00;;;5.24;57.91;102136.56;4960566;29;20204;-76
2022/03/08 08:28:32;;;;;;;15.35;10.98;;;5.10;31.10;;;5.27;58.01;102133.63;4959079;29;20176;-75
2022/03/08 08:31:01;;;;;;;11.10;7.65;;;5.10;30.70;;;5.52;57.35;102137.59;4960864;28;20714;-76
2022/03/08 08:33:32;;;;;;;10.30;8.90;;;5.20;29.70;;;5.60;56.65;102148.53;4962319;29;20196;-77
2022/03/08 08:36:02;;;;;;;11.98;7.57;;;5.30;28.90;;;5.83;55.85;102152.63;4957227;29;20216;-77
2022/03/08 08:38:32;;;;;;;13.73;8.98;;;5.60;27.60;;;5.74;56.24;102153.47;4957399;29;20179;-77
2022/03/08 08:41:01;;;;;;;14.05;8.23;;;5.60;26.50;;;5.88;55.43;102154.94;4959651;28;20212;-78
2022/03/08 08:43:31;;;;;;;10.48;7.15;;;5.70;25.80;;;5.81;54.57;102159.16;4960634;29;20181;-76
2022/03/08 08:46:00;;;;;;;10.00;6.10;;;5.80;23.50;;;5.78;54.31;102164.78;4941863;29;20188;-77
2022/03/08 08:48:31;;;;;;;16.25;8.02;;;5.80;22.40;;;5.84;54.35;102157.03;4973024;28;20196;-76
2022/03/08 08:50:59;;;;;;;11.25;8.73;;;5.70;22.40;;;5.99;54.37;102168.22;4959076;28;20224;-78
2022/03/08 08:53:29;;;;;;;8.13;7.13;;;5.80;22.20;;;6.13;53.72;102170.50;4959292;29;20198;-77
2022/03/08 08:55:58;;;;;;;10.63;7.70;;;5.90;22.10;;;6.26;53.46;102167.50;4960229;29;20191;-76
2022/03/08 08:58:27;;;;;;;9.18;6.63;;;6.10;21.30;;;6.32;53.36;102161.56;4942242;29;20228;-77
2022/03/08 09:00:56;;;;;;;8.48;6.63;;;6.20;20.80;;;6.28;53.34;102158.31;4957821;28;20218;-79
2022/03/08 09:03:26;;;;;;;7.07;6.35;;;6.20;20.80;;;6.24;53.11;102175.72;4959769;29;20177;-77
2022/03/08 09:05:57;;;;;;;7.82;5.65;;;6.20;19.90;;;6.46;52.55;102153.88;4960163;29;20695;-78
2022/03/08 09:08:26;;;;;;;8.07;5.70;;;6.30;19.60;;;6.61;52.14;102161.50;4941996;29;20196;-77
2022/03/08 09:11:00;;;;;;;14.10;7.57;;;6.40;19.00;;;6.53;52.52;102157.69;4961544;28;20243;-78
2022/03/08 09:13:30;;;;;;;10.63;7.93;;;6.30;18.60;;;6.64;52.14;102153.97;4960426;29;20173;-77
2022/03/08 09:15:59;;;;;;;11.27;6.47;;;6.40;18.40;;;6.82;51.81;102162.16;4959523;29;20317;-77
2022/03/08 09:18:28;;;;;;;9.65;6.20;;;6.60;17.80;;;6.77;51.17;102159.06;4961970;29;20230;-76
2022/03/08 09:20:58;;;;;;;6.95;5.38;;;6.70;16.90;;;6.76;51.16;102154.66;4961729;28;20212;-77
2022/03/08 09:23:28;;;;;;;7.07;5.13;;;6.70;16.00;;;6.83;51.10;102161.13;4959144;29;20173;-77
2022/03/08 09:25:57;;;;;;;7.20;5.45;;;6.70;17.00;;;7.01;50.80;102163.91;4973696;28;20200;-77
2022/03/08 09:28:25;;;;;;;8.10;6.72;;;6.80;16.00;;;6.89;51.08;102161.41;4958624;29;20216;-76
2022/03/08 09:30:54;;;;;;;8.70;7.13;;;6.70;16.00;;;7.08;51.14;102168.53;4958721;28;20204;-77
2022/03/08 09:33:25;;;;;;;9.65;5.72;;;6.90;16.30;;;7.12;49.94;102169.94;4956808;29;20235;-76
2022/03/08 09:35:53;;;;;;;11.23;5.95;;;6.90;15.00;;;7.10;49.63;102166.56;4958927;29;20383;-78
2022/03/08 09:38:24;;;;;;;14.18;5.82;;;7.00;14.30;;;6.99;50.09;102161.38;4973235;28;20204;-78
2022/03/08 09:40:54;;;;;;;9.32;5.68;;;6.90;14.50;;;7.13;50.46;102171.63;4958468;28;20224;-76
2022/03/08 09:43:23;;;;;;;7.38;5.70;;;6.90;14.90;;;7.48;49.87;102159.25;4958887;29;20168;-77
2022/03/08 09:45:52;;;;;;;8.20;5.25;;;7.20;14.80;;;7.74;49.86;102162.94;4958974;29;20283;-78
2022/03/08 09:48:21;;;;;;;11.13;5.85;;;7.40;14.70;;;7.73;48.97;102161.22;4958937;29;20622;-77
2022/03/08 09:50:50;;;;;;;7.60;6.28;;;7.40;14.00;;;7.73;48.87;102159.38;4957170;28;20767;-76
2022/03/08 09:53:21;;;;;;;11.55;6.50;;;7.40;13.70;;;7.96;48.88;102162.47;4956658;29;20199;-77
2022/03/08 09:55:51;;;;;;;10.25;5.72;;;7.60;13.50;;;7.94;48.72;102161.75;4957735;29;20219;-78
2022/03/08 09:58:21;;;;;;;9.20;4.13;;;7.60;12.90;;;8.22;46.76;102152.59;4971381;28;20255;-77
2022/03/08 10:00:51;;;;;;;6.60;5.40;;;7.90;11.20;;;8.29;46.39;102145.59;4960856;28;20231;-77
2022/03/08 10:03:32;;;;;;;6.30;5.55;;;8.10;9.90;;;8.03;46.76;102144.69;4960569;29;20639;-77
2022/03/08 10:06:02;;;;;;;11.02;4.80;;;8.00;9.60;;;7.95;46.44;102144.59;4962286;29;20188;-76
2022/03/08 10:08:31;;;;;;;5.22;3.40;;;7.80;8.80;;;8.25;45.59;102141.47;4963044;29;20487;-77
2022/03/08 10:11:04;;;;;;;8.55;4.18;;;8.00;8.30;;;8.18;45.75;102147.66;4956909;28;20210;-78
2022/03/08 10:13:53;;;;;;;6.15;4.57;;;8.00;7.70;;;8.16;46.13;102142.41;4957565;28;20191;-77
2022/03/08 10:16:25;;;;;;;7.22;4.70;;;8.00;8.10;;;8.39;45.03;102144.63;4956343;29;20203;-76
2022/03/08 10:18:58;;;;;;;6.55;4.85;;;8.30;7.30;;;8.22;45.60;102149.91;4955126;29;20256;-78
2022/03/08 10:21:32;;;;;;;10.57;6.05;;;8.10;6.90;;;8.41;46.14;102142.63;4959061;28;20208;-77
2022/03/08 10:24:04;;;;;;;9.95;5.53;;;8.10;8.30;;;8.44;46.29;102142.31;4957673;29;20172;-77
2022/03/08 10:26:46;;;;;;;9.63;5.05;;;8.10;8.30;;;8.46;46.49;102138.47;4956223;29;20169;-77
2022/03/08 10:29:22;;;;;;;6.57;5.82;;;8.10;8.40;;;8.37;46.29;102147.50;4955487;29;20172;-77